Spur, Texas
Current Conditions -  °F | °C
As of 10:35 PM on Monday 20 Oct 2014 (Local Time) from KSNK Reporting Station
Clear Clear  
Wind Chill: 65°   Ceiling: Unl
Heat Index: 65°   Visibility: 10mi
Dew Point: 53°   Wind: 5mph
Humidity: 65%   Direction: 110°ESE
Pressure: 30.1"   Gusts: NA
Location:  33.48°N, 100.86°W
Report Text: KSNK 210335Z AUTO 11004KT 10SM CLR 19/12 A3010 RMK AO2 T01860118
Loading
Personal Weather Stations






























Interactive Weather Map
Tropical Storm Tracking
New forecast layout! Learn more

10-Day Weather Forecast

Advertisements
Track Severe Weather on mobile